createdAt,value
2019-05-03T00:02:17.970Z,5.40
2019-05-03T00:04:49.398Z,6.83
2019-05-03T00:07:19.371Z,5.60
2019-05-03T00:09:49.149Z,5.70
2019-05-03T00:12:19.050Z,4.80
2019-05-03T00:14:51.996Z,5.20
2019-05-03T00:17:21.971Z,4.20
2019-05-03T00:19:52.771Z,4.30
2019-05-03T00:22:22.711Z,3.70
2019-05-03T00:25:04.925Z,4.60
2019-05-03T00:27:24.137Z,4.27
2019-05-03T00:29:53.880Z,4.07
2019-05-03T00:32:25.253Z,4.17
2019-05-03T00:34:56.751Z,3.53
2019-05-03T00:37:28.096Z,4.43
2019-05-03T00:40:12.272Z,4.13
2019-05-03T00:42:42.415Z,4.87
2019-05-03T00:45:12.644Z,3.93
2019-05-03T00:47:42.494Z,4.93
2019-05-03T00:50:12.731Z,3.90
2019-05-03T00:52:42.557Z,4.23
2019-05-03T00:55:16.911Z,3.93
2019-05-03T00:57:43.794Z,4.27
2019-05-03T01:00:14.091Z,4.10
2019-05-03T01:02:43.889Z,3.77
2019-05-03T01:05:13.732Z,3.70
2019-05-03T01:07:43.469Z,4.17
2019-05-03T01:10:13.716Z,3.90
2019-05-03T01:12:43.483Z,4.40
2019-05-03T01:15:32.004Z,4.57
2019-05-03T01:18:03.618Z,5.00
2019-05-03T01:20:33.426Z,4.20
2019-05-03T01:23:03.125Z,4.20
2019-05-03T01:25:35.446Z,3.97
2019-05-03T01:28:04.559Z,4.13
2019-05-03T01:30:34.251Z,3.37
2019-05-03T01:33:04.006Z,4.30
2019-05-03T01:35:33.787Z,4.80
2019-05-03T01:38:03.556Z,3.53
2019-05-03T01:40:33.342Z,3.63
2019-05-03T01:43:03.092Z,4.47
2019-05-03T01:45:32.956Z,3.70
2019-05-03T01:48:04.736Z,3.40
2019-05-03T01:50:36.238Z,3.80
2019-05-03T01:53:07.702Z,3.77
2019-05-03T01:55:52.726Z,3.40
2019-05-03T01:58:23.353Z,3.97
2019-05-03T02:00:57.678Z,3.70
2019-05-03T02:03:37.950Z,3.27
2019-05-03T02:06:07.880Z,3.00
2019-05-03T02:08:37.678Z,3.03
2019-05-03T02:11:07.442Z,3.17
2019-05-03T02:13:37.441Z,3.50
2019-05-03T02:16:07.273Z,3.00
2019-05-03T02:18:36.976Z,3.07
2019-05-03T02:21:06.752Z,3.30
2019-05-03T02:23:36.627Z,3.03
2019-05-03T02:26:06.381Z,3.37
2019-05-03T02:28:36.167Z,3.13
2019-05-03T02:31:06.009Z,3.37
2019-05-03T02:33:35.868Z,2.67
2019-05-03T02:36:05.691Z,3.30
2019-05-03T02:38:35.494Z,3.23
2019-05-03T02:41:05.462Z,2.93
2019-05-03T02:43:45.953Z,2.90
2019-05-03T02:46:36.159Z,3.37
2019-05-03T02:49:16.398Z,2.70
2019-05-03T02:51:46.270Z,4.27
2019-05-03T02:54:16.117Z,3.20
2019-05-03T02:56:46.245Z,2.77
2019-05-03T02:59:16.176Z,3.13
2019-05-03T03:01:46.756Z,3.20
2019-05-03T03:04:17.441Z,3.23
2019-05-03T03:06:49.462Z,3.23
2019-05-03T03:09:21.692Z,3.40
2019-05-03T03:11:55.754Z,3.20
2019-05-03T03:14:27.137Z,3.10
2019-05-03T03:16:59.361Z,3.20
2019-05-03T03:19:30.705Z,3.13
2019-05-03T03:22:05.984Z,2.87
2019-05-03T03:24:39.879Z,3.53
2019-05-03T03:27:12.669Z,3.73
2019-05-03T03:29:45.977Z,3.60
2019-05-03T03:32:21.808Z,3.53
2019-05-03T03:35:01.530Z,3.60
2019-05-03T03:37:26.256Z,3.50
2019-05-03T03:39:56.284Z,3.30
2019-05-03T03:42:26.224Z,4.00
2019-05-03T03:44:56.943Z,3.77
2019-05-03T03:47:30.395Z,3.93
2019-05-03T03:50:02.042Z,4.27
2019-05-03T03:52:36.011Z,3.87
2019-05-03T03:55:06.498Z,3.77
2019-05-03T03:57:36.659Z,3.70
2019-05-03T04:00:08.268Z,3.47
2019-05-03T04:02:39.790Z,3.77
2019-05-03T04:05:09.609Z,4.67
2019-05-03T04:07:39.545Z,3.67
2019-05-03T04:10:09.818Z,3.97
2019-05-03T04:12:40.917Z,4.03
2019-05-03T04:15:21.529Z,3.93
2019-05-03T04:17:56.435Z,4.20
2019-05-03T04:20:27.230Z,4.97
2019-05-03T04:22:57.103Z,5.37
2019-05-03T04:25:27.249Z,3.90
2019-05-03T04:27:57.099Z,3.87
2019-05-03T04:30:27.083Z,3.67
2019-05-03T04:32:56.824Z,3.57
2019-05-03T04:35:26.974Z,3.60
2019-05-03T04:37:56.947Z,4.00
2019-05-03T04:40:26.899Z,3.93
2019-05-03T04:42:56.683Z,4.03
2019-05-03T04:45:26.448Z,4.10
2019-05-03T04:47:56.455Z,3.37
2019-05-03T04:50:26.352Z,3.90
2019-05-03T04:52:56.859Z,3.50
2019-05-03T04:55:27.079Z,3.90
2019-05-03T04:57:56.873Z,3.90
2019-05-03T05:00:26.975Z,3.83
2019-05-03T05:02:56.767Z,3.80
2019-05-03T05:05:26.622Z,3.40
2019-05-03T05:07:56.391Z,3.87
2019-05-03T05:10:26.521Z,3.37
2019-05-03T05:12:56.375Z,3.70
2019-05-03T05:15:26.740Z,3.13
2019-05-03T05:17:58.432Z,3.77
2019-05-03T05:20:45.456Z,3.10
2019-05-03T05:23:15.459Z,3.40
2019-05-03T05:25:46.940Z,3.73
2019-05-03T05:28:18.395Z,2.90
2019-05-03T05:30:48.298Z,3.57
2019-05-03T05:33:21.166Z,3.70
2019-05-03T05:35:51.395Z,3.00
2019-05-03T05:38:21.147Z,3.10
2019-05-03T05:40:51.011Z,3.43
2019-05-03T05:43:20.836Z,3.47
2019-05-03T05:45:50.583Z,3.07
2019-05-03T05:48:22.070Z,3.67
2019-05-03T05:50:51.932Z,3.20
2019-05-03T05:53:21.721Z,3.10
2019-05-03T05:55:54.489Z,3.20
2019-05-03T05:58:26.500Z,3.70
2019-05-03T06:00:57.869Z,3.70
2019-05-03T06:03:27.714Z,3.40
2019-05-03T06:05:59.314Z,3.23
2019-05-03T06:08:39.868Z,2.97
2019-05-03T06:11:11.310Z,3.63
2019-05-03T06:13:44.372Z,3.00
2019-05-03T06:16:15.994Z,3.20
2019-05-03T06:18:54.449Z,3.30
2019-05-03T06:21:32.362Z,3.43
2019-05-03T06:24:12.410Z,3.10
2019-05-03T06:26:50.226Z,2.70
2019-05-03T06:29:20.008Z,3.33
2019-05-03T06:31:51.522Z,2.90
2019-05-03T06:34:21.296Z,3.60
2019-05-03T06:36:52.641Z,3.17
2019-05-03T06:39:24.775Z,3.27
2019-05-03T06:41:55.044Z,2.87
2019-05-03T06:44:28.580Z,3.57
2019-05-03T06:46:56.387Z,3.17
2019-05-03T06:49:26.161Z,2.80
2019-05-03T06:51:55.962Z,2.87
2019-05-03T06:54:29.760Z,2.90
2019-05-03T06:57:00.137Z,2.87
2019-05-03T06:59:36.384Z,2.70
2019-05-03T07:02:22.744Z,2.60
2019-05-03T07:05:05.074Z,2.90
2019-05-03T07:07:36.814Z,2.60
2019-05-03T07:10:15.335Z,2.93
2019-05-03T07:13:02.063Z,2.50
2019-05-03T07:15:31.840Z,2.70
2019-05-03T07:18:01.686Z,2.77
2019-05-03T07:20:35.236Z,2.47
2019-05-03T07:23:04.591Z,2.50
2019-05-03T07:25:34.523Z,2.90
2019-05-03T07:28:04.450Z,2.73
2019-05-03T07:30:35.233Z,2.50
2019-05-03T07:33:07.537Z,2.77
2019-05-03T07:35:37.324Z,2.17
2019-05-03T07:38:10.336Z,2.13
2019-05-03T07:40:44.559Z,2.60
2019-05-03T07:43:14.926Z,2.37
2019-05-03T07:45:45.479Z,2.43
2019-05-03T07:48:15.395Z,2.40
2019-05-03T07:50:45.262Z,2.50
2019-05-03T07:53:15.840Z,2.43
2019-05-03T07:55:59.093Z,1.90
2019-05-03T07:58:39.513Z,2.60
2019-05-03T08:01:11.109Z,2.80
2019-05-03T08:03:44.979Z,2.33
2019-05-03T08:06:15.025Z,2.63
2019-05-03T08:08:45.420Z,2.80
2019-05-03T08:11:15.920Z,2.30
2019-05-03T08:13:45.993Z,2.20
2019-05-03T08:16:16.118Z,2.77
2019-05-03T08:18:46.955Z,2.70
2019-05-03T08:21:17.135Z,2.57
2019-05-03T08:23:47.116Z,2.80
2019-05-03T08:26:16.843Z,2.33
2019-05-03T08:28:46.718Z,2.03
2019-05-03T08:31:23.928Z,1.93
2019-05-03T08:33:56.695Z,2.30
2019-05-03T08:36:26.644Z,2.47
2019-05-03T08:38:56.757Z,2.33
2019-05-03T08:41:28.108Z,2.47
2019-05-03T08:43:57.970Z,2.33
2019-05-03T08:46:27.827Z,2.50
2019-05-03T08:48:57.579Z,2.73
2019-05-03T08:51:27.390Z,3.23
2019-05-03T08:53:57.159Z,2.10
2019-05-03T08:56:27.407Z,2.03
2019-05-03T08:59:04.799Z,2.53
2019-05-03T09:01:39.398Z,2.30
2019-05-03T09:04:09.266Z,2.80
2019-05-03T09:06:39.471Z,2.20
2019-05-03T09:09:27.798Z,2.23
2019-05-03T09:11:57.944Z,2.00
2019-05-03T09:14:38.705Z,2.53
2019-05-03T09:17:04.821Z,2.20
2019-05-03T09:19:34.729Z,2.97
2019-05-03T09:22:06.161Z,2.60
2019-05-03T09:24:39.209Z,2.37
2019-05-03T09:27:09.080Z,2.93
2019-05-03T09:29:43.095Z,2.33
2019-05-03T09:32:11.148Z,2.37
2019-05-03T09:34:40.955Z,3.23
2019-05-03T09:37:10.735Z,2.37
2019-05-03T09:39:40.567Z,2.30
2019-05-03T09:42:10.446Z,2.13
2019-05-03T09:44:40.320Z,2.03
2019-05-03T09:47:10.217Z,2.00
2019-05-03T09:49:40.357Z,2.40
2019-05-03T09:52:10.399Z,2.33
2019-05-03T09:54:45.277Z,2.20
2019-05-03T09:57:16.306Z,2.47
2019-05-03T09:59:56.066Z,1.93
2019-05-03T10:02:24.498Z,2.30
2019-05-03T10:04:55.425Z,2.10
2019-05-03T10:07:26.584Z,2.10
2019-05-03T10:09:58.096Z,1.60
2019-05-03T10:12:28.138Z,2.10
2019-05-03T10:14:59.027Z,1.80
2019-05-03T10:17:36.624Z,2.03
2019-05-03T10:20:09.647Z,1.90
2019-05-03T10:22:42.274Z,1.87
2019-05-03T10:25:12.217Z,2.23
2019-05-03T10:27:47.940Z,2.10
2019-05-03T10:30:20.943Z,1.73
2019-05-03T10:32:52.388Z,1.57
2019-05-03T10:35:24.476Z,1.80
2019-05-03T10:37:58.444Z,1.90
2019-05-03T10:40:28.463Z,1.77
2019-05-03T10:42:58.307Z,1.80
2019-05-03T10:45:28.244Z,1.50
2019-05-03T10:47:58.063Z,2.00
2019-05-03T10:50:28.166Z,1.73
2019-05-03T10:53:05.685Z,2.13
2019-05-03T10:55:35.898Z,1.83
2019-05-03T10:58:16.250Z,2.33
2019-05-03T11:00:52.792Z,2.40
2019-05-03T11:03:19.593Z,2.93
2019-05-03T11:05:49.463Z,2.40
2019-05-03T11:08:19.191Z,2.20
2019-05-03T11:10:48.903Z,2.30
2019-05-03T11:13:18.829Z,2.13
2019-05-03T11:15:48.706Z,2.23
2019-05-03T11:18:18.665Z,2.70
2019-05-03T11:20:48.472Z,1.93
2019-05-03T11:23:18.245Z,1.83
2019-05-03T11:25:47.953Z,1.90
2019-05-03T11:28:19.433Z,2.00
2019-05-03T11:30:56.405Z,2.13
2019-05-03T11:33:27.983Z,2.13
2019-05-03T11:35:59.597Z,2.20
2019-05-03T11:38:30.997Z,2.30
2019-05-03T11:41:00.740Z,2.00
2019-05-03T11:43:30.777Z,2.47
2019-05-03T11:46:00.565Z,2.67
2019-05-03T11:48:30.432Z,2.23
2019-05-03T11:51:00.249Z,2.60
2019-05-03T11:53:30.414Z,2.60
2019-05-03T11:56:00.231Z,2.53
2019-05-03T11:58:30.111Z,2.47
2019-05-03T12:01:13.006Z,2.20
2019-05-03T12:03:35.490Z,2.00
2019-05-03T12:06:06.036Z,2.07
2019-05-03T12:08:36.047Z,1.90
2019-05-03T12:11:06.095Z,1.80
2019-05-03T12:13:36.036Z,1.90
2019-05-03T12:16:17.323Z,2.23
2019-05-03T12:18:49.398Z,2.00
2019-05-03T12:21:10.585Z,2.00
2019-05-03T12:23:40.941Z,2.17
2019-05-03T12:26:13.683Z,2.73
2019-05-03T12:28:44.783Z,2.53
2019-05-03T12:31:29.416Z,2.33
2019-05-03T12:33:46.253Z,2.00
2019-05-03T12:36:16.424Z,2.10
2019-05-03T12:38:47.330Z,2.17
2019-05-03T12:41:19.706Z,2.17
2019-05-03T12:43:49.743Z,2.47
2019-05-03T12:46:19.961Z,2.33
2019-05-03T12:48:50.038Z,2.33
2019-05-03T12:51:19.916Z,2.00
2019-05-03T12:53:50.121Z,2.00
2019-05-03T12:56:23.225Z,2.00
2019-05-03T12:59:02.661Z,2.23
2019-05-03T13:01:49.231Z,1.97
2019-05-03T13:04:24.843Z,2.40
2019-05-03T13:06:59.615Z,2.43
2019-05-03T13:09:29.363Z,1.90
2019-05-03T13:11:59.396Z,1.87
2019-05-03T13:14:29.130Z,2.07
2019-05-03T13:16:58.957Z,2.00
2019-05-03T13:19:28.777Z,2.67
2019-05-03T13:21:58.526Z,2.07
2019-05-03T13:24:28.298Z,2.30
2019-05-03T13:26:58.079Z,1.87
2019-05-03T13:29:27.804Z,2.03
2019-05-03T13:32:01.862Z,1.93
2019-05-03T13:34:29.078Z,2.03
2019-05-03T13:36:58.873Z,2.23
2019-05-03T13:39:28.680Z,1.83
2019-05-03T13:41:58.399Z,2.10
2019-05-03T13:44:28.155Z,2.67
2019-05-03T13:46:58.300Z,2.40
2019-05-03T13:49:28.205Z,2.03
2019-05-03T13:52:26.876Z,2.10
2019-05-03T13:55:08.792Z,2.30
2019-05-03T13:57:39.598Z,2.53
2019-05-03T14:00:09.695Z,1.77
2019-05-03T14:02:39.522Z,2.17
2019-05-03T14:05:09.449Z,1.97
2019-05-03T14:07:39.137Z,2.30
2019-05-03T14:10:09.303Z,2.10
2019-05-03T14:12:39.188Z,2.57
2019-05-03T14:15:09.458Z,2.40
2019-05-03T14:17:39.169Z,2.07
2019-05-03T14:20:11.362Z,2.30
2019-05-03T14:22:42.805Z,2.30
2019-05-03T14:25:12.548Z,2.40
2019-05-03T14:27:42.434Z,2.47
2019-05-03T14:30:14.580Z,2.40
2019-05-03T14:32:45.292Z,2.13
2019-05-03T14:35:16.307Z,2.07
2019-05-03T14:37:46.165Z,2.67
2019-05-03T14:40:16.141Z,2.37
2019-05-03T14:42:45.829Z,2.20
2019-05-03T14:45:15.945Z,2.20
2019-05-03T14:47:45.829Z,2.73
2019-05-03T14:50:15.784Z,2.47
2019-05-03T14:52:45.675Z,2.10
2019-05-03T14:55:17.351Z,2.47
2019-05-03T14:58:08.615Z,2.63
2019-05-03T15:00:45.188Z,2.10
2019-05-03T15:03:16.670Z,2.30
2019-05-03T15:05:46.407Z,2.43
2019-05-03T15:08:16.179Z,2.10
2019-05-03T15:10:46.056Z,2.30
2019-05-03T15:13:15.966Z,2.67
2019-05-03T15:15:45.878Z,2.40
2019-05-03T15:18:15.599Z,2.37
2019-05-03T15:20:45.483Z,2.33
2019-05-03T15:23:15.321Z,2.20
2019-05-03T15:25:45.322Z,2.40
2019-05-03T15:28:15.153Z,2.17
2019-05-03T15:30:44.954Z,2.00
2019-05-03T15:33:15.162Z,2.53
2019-05-03T15:35:46.698Z,1.90
2019-05-03T15:38:16.473Z,2.13
2019-05-03T15:40:46.414Z,2.30
2019-05-03T15:43:17.845Z,2.50
2019-05-03T15:45:54.866Z,2.33
2019-05-03T15:48:26.334Z,2.20
2019-05-03T15:50:56.054Z,2.00
2019-05-03T15:53:25.930Z,2.53
2019-05-03T15:55:55.699Z,2.43
2019-05-03T15:58:25.458Z,2.47
2019-05-03T16:00:55.590Z,2.40
2019-05-03T16:03:25.479Z,2.47
2019-05-03T16:05:55.768Z,2.40
2019-05-03T16:08:25.670Z,2.60
2019-05-03T16:10:55.551Z,1.93
2019-05-03T16:13:25.484Z,2.20
2019-05-03T16:15:55.479Z,2.33
2019-05-03T16:18:25.252Z,2.80
2019-05-03T16:20:55.046Z,2.23
2019-05-03T16:23:25.198Z,2.20
2019-05-03T16:25:56.884Z,2.17
2019-05-03T16:28:35.140Z,2.40
2019-05-03T16:31:07.052Z,2.37
2019-05-03T16:33:41.237Z,2.73
2019-05-03T16:36:14.828Z,2.40
2019-05-03T16:39:00.613Z,2.47
2019-05-03T16:41:37.914Z,2.70
2019-05-03T16:44:18.279Z,2.70
2019-05-03T16:46:50.637Z,2.40
2019-05-03T16:49:31.172Z,2.70
2019-05-03T16:52:14.747Z,2.23
2019-05-03T16:55:02.536Z,2.30
2019-05-03T16:57:46.794Z,2.57
2019-05-03T17:00:32.058Z,2.93
2019-05-03T17:03:09.346Z,2.23
2019-05-03T17:06:09.035Z,2.90
2019-05-03T17:08:50.133Z,2.17
2019-05-03T17:11:34.934Z,3.17
2019-05-03T17:14:00.713Z,2.43
2019-05-03T17:16:34.449Z,2.77
2019-05-03T17:19:11.772Z,2.67
2019-05-03T17:21:50.706Z,2.50
2019-05-03T17:24:22.357Z,2.97
2019-05-03T17:26:55.131Z,2.90
2019-05-03T17:29:25.281Z,2.43
2019-05-03T17:31:56.859Z,2.87
2019-05-03T17:34:26.777Z,2.00
2019-05-03T17:36:56.689Z,2.23
2019-05-03T17:39:46.350Z,2.90
2019-05-03T17:42:17.960Z,2.93
2019-05-03T17:44:48.289Z,2.93
2019-05-03T17:47:18.127Z,3.33
2019-05-03T17:49:48.068Z,3.13
2019-05-03T17:52:35.851Z,3.53
2019-05-03T17:55:17.429Z,3.20
2019-05-03T17:57:55.226Z,3.07
2019-05-03T18:00:26.790Z,2.87
2019-05-03T18:02:57.149Z,3.20
2019-05-03T18:05:42.506Z,2.60
2019-05-03T18:08:15.652Z,3.57
2019-05-03T18:10:49.322Z,3.03
2019-05-03T18:13:19.425Z,2.97
2019-05-03T18:15:54.332Z,3.17
2019-05-03T18:18:24.822Z,2.67
2019-05-03T18:20:56.826Z,2.60
2019-05-03T18:23:29.869Z,2.90
2019-05-03T18:25:59.088Z,3.23
2019-05-03T18:28:41.655Z,2.97
2019-05-03T18:31:24.875Z,2.60
2019-05-03T18:33:54.909Z,2.67
2019-05-03T18:36:27.996Z,2.77
2019-05-03T18:38:58.133Z,2.60
2019-05-03T18:41:34.301Z,2.60
2019-05-03T18:44:12.326Z,2.43
2019-05-03T18:46:49.897Z,2.80
2019-05-03T18:49:31.108Z,2.53
2019-05-03T18:52:10.269Z,3.20
2019-05-03T18:54:47.814Z,3.00
2019-05-03T18:57:21.468Z,2.30
2019-05-03T18:59:55.582Z,2.90
2019-05-03T19:02:26.791Z,2.43
2019-05-03T19:04:57.095Z,3.30
2019-05-03T19:07:46.886Z,2.73
2019-05-03T19:10:26.244Z,2.43
2019-05-03T19:12:59.480Z,3.53
2019-05-03T19:15:31.875Z,2.83
2019-05-03T19:18:26.987Z,2.60
2019-05-03T19:21:01.987Z,2.60
2019-05-03T19:23:35.776Z,2.60
2019-05-03T19:26:10.532Z,2.40
2019-05-03T19:28:46.045Z,2.70
2019-05-03T19:31:25.160Z,2.67
2019-05-03T19:34:00.355Z,2.60
2019-05-03T19:36:50.537Z,2.70
2019-05-03T19:39:25.233Z,2.33
2019-05-03T19:41:59.221Z,2.70
2019-05-03T19:44:42.512Z,2.80
2019-05-03T19:47:38.933Z,2.70
2019-05-03T19:53:38.019Z,3.13
2019-05-03T19:56:19.152Z,2.80
2019-05-03T19:58:59.931Z,2.67
2019-05-03T20:01:55.082Z,2.50
2019-05-03T20:04:57.338Z,2.60
2019-05-03T20:08:02.070Z,2.50
2019-05-03T20:11:05.002Z,2.53
2019-05-03T20:14:05.329Z,2.60
2019-05-03T20:16:56.918Z,2.20
2019-05-03T20:19:34.668Z,3.23
2019-05-03T20:22:05.134Z,2.77
2019-05-03T20:24:35.019Z,2.53
2019-05-03T20:27:04.883Z,2.60
2019-05-03T20:29:34.709Z,2.50
2019-05-03T20:32:05.778Z,2.23
2019-05-03T20:34:36.584Z,2.10
2019-05-03T20:37:06.603Z,2.60
2019-05-03T20:39:36.384Z,2.90
2019-05-03T20:42:06.311Z,2.23
2019-05-03T20:44:44.758Z,2.10
2019-05-03T20:47:25.398Z,2.10
2019-05-03T20:50:15.325Z,2.57
2019-05-03T20:52:45.050Z,2.30
2019-05-03T20:55:15.629Z,2.80
2019-05-03T20:57:45.637Z,2.70
2019-05-03T21:00:17.853Z,2.20
2019-05-03T21:02:53.356Z,2.43
2019-05-03T21:05:27.838Z,2.73
2019-05-03T21:07:51.579Z,2.80
2019-05-03T21:10:21.540Z,3.10
2019-05-03T21:12:51.370Z,2.70
2019-05-03T21:15:35.475Z,2.93
2019-05-03T21:18:09.900Z,2.43
2019-05-03T21:20:47.617Z,2.90
2019-05-03T21:23:27.656Z,3.00
2019-05-03T21:26:09.502Z,2.50
2019-05-03T21:28:34.523Z,2.80
2019-05-03T21:31:05.661Z,2.80
2019-05-03T21:33:35.690Z,2.57
2019-05-03T21:36:05.429Z,2.43
2019-05-03T21:38:35.649Z,2.33
2019-05-03T21:41:06.060Z,2.53
2019-05-03T21:43:35.832Z,2.87
2019-05-03T21:46:22.240Z,2.50
2019-05-03T21:48:56.227Z,2.87
2019-05-03T21:51:25.959Z,2.53
2019-05-03T21:53:55.646Z,2.87
2019-05-03T21:56:25.437Z,2.80
2019-05-03T21:58:55.404Z,3.07
2019-05-03T22:01:25.894Z,3.53
2019-05-03T22:03:55.889Z,3.37
2019-05-03T22:06:25.764Z,3.37
2019-05-03T22:08:55.749Z,3.70
2019-05-03T22:11:26.761Z,4.30
2019-05-03T22:13:58.191Z,4.57
2019-05-03T22:16:38.104Z,4.50
2019-05-03T22:19:07.922Z,4.70
2019-05-03T22:21:39.371Z,4.47
2019-05-03T22:24:20.080Z,5.03
2019-05-03T22:27:06.597Z,4.47
2019-05-03T22:29:35.603Z,5.07
2019-05-03T22:32:05.720Z,4.17
2019-05-03T22:34:35.471Z,4.73
2019-05-03T22:37:05.327Z,5.33
2019-05-03T22:39:35.151Z,4.33
2019-05-03T22:42:05.033Z,4.40
2019-05-03T22:44:35.679Z,3.43
2019-05-03T22:47:05.817Z,3.50
2019-05-03T22:49:37.342Z,4.00
2019-05-03T22:52:07.209Z,3.20
2019-05-03T22:54:36.908Z,3.87
2019-05-03T22:57:06.732Z,3.23
2019-05-03T22:59:36.512Z,3.23
2019-05-03T23:02:06.287Z,3.00
2019-05-03T23:04:36.071Z,3.27
2019-05-03T23:07:05.824Z,3.30
2019-05-03T23:09:35.532Z,3.37
2019-05-03T23:12:05.608Z,3.40
2019-05-03T23:14:35.420Z,3.33
2019-05-03T23:17:05.356Z,3.57
2019-05-03T23:19:36.799Z,3.27
2019-05-03T23:22:10.971Z,3.33
2019-05-03T23:24:40.750Z,3.40
2019-05-03T23:27:10.502Z,3.10
2019-05-03T23:29:40.227Z,3.30
2019-05-03T23:32:10.106Z,3.23
2019-05-03T23:34:39.805Z,3.30
2019-05-03T23:37:09.511Z,3.07
2019-05-03T23:39:39.308Z,3.23
2019-05-03T23:42:09.022Z,3.10
2019-05-03T23:44:38.784Z,2.73
2019-05-03T23:47:10.153Z,3.10
2019-05-03T23:49:39.905Z,2.70
2019-05-03T23:52:26.438Z,2.90
2019-05-03T23:54:57.965Z,2.63
2019-05-03T23:57:27.673Z,3.07
2019-05-03T23:59:57.401Z,2.77
